sensor_id;sensor_type;location;lat;lon;timestamp;temperature;humidity
19348;DHT22;9810;52.480;9.806;2023-05-10T00:00:27;13.20;99.90
19348;DHT22;9810;52.480;9.806;2023-05-10T00:02:56;13.20;99.90
19348;DHT22;9810;52.480;9.806;2023-05-10T00:05:23;13.20;99.90
19348;DHT22;9810;52.480;9.806;2023-05-10T00:07:50;13.20;99.90
19348;DHT22;9810;52.480;9.806;2023-05-10T00:10:18;13.10;99.90
19348;DHT22;9810;52.480;9.806;2023-05-10T00:12:45;13.20;99.90
19348;DHT22;9810;52.480;9.806;2023-05-10T00:15:12;13.20;99.90
19348;DHT22;9810;52.480;9.806;2023-05-10T00:17:40;13.10;99.90
19348;DHT22;9810;52.480;9.806;2023-05-10T00:20:11;12.90;99.90
19348;DHT22;9810;52.480;9.806;2023-05-10T00:22:38;12.80;99.90
19348;DHT22;9810;52.480;9.806;2023-05-10T00:25:07;12.80;99.90
19348;DHT22;9810;52.480;9.806;2023-05-10T00:27:35;12.80;99.90
19348;DHT22;9810;52.480;9.806;2023-05-10T00:30:05;12.70;99.90
19348;DHT22;9810;52.480;9.806;2023-05-10T00:32:33;12.70;99.90
19348;DHT22;9810;52.480;9.806;2023-05-10T00:35:00;12.90;99.90
19348;DHT22;9810;52.480;9.806;2023-05-10T00:37:29;13.00;99.90
19348;DHT22;9810;52.480;9.806;2023-05-10T00:39:56;13.00;99.90
19348;DHT22;9810;52.480;9.806;2023-05-10T00:42:24;13.00;99.90
19348;DHT22;9810;52.480;9.806;2023-05-10T00:44:53;13.00;99.90
19348;DHT22;9810;52.480;9.806;2023-05-10T00:47:21;13.00;99.90
19348;DHT22;9810;52.480;9.806;2023-05-10T00:49:48;13.00;99.90
19348;DHT22;9810;52.480;9.806;2023-05-10T00:52:16;13.10;99.90
19348;DHT22;9810;52.480;9.806;2023-05-10T00:54:46;12.90;99.90
19348;DHT22;9810;52.480;9.806;2023-05-10T00:57:14;12.80;99.90
19348;DHT22;9810;52.480;9.806;2023-05-10T00:59:41;12.80;99.90
19348;DHT22;9810;52.480;9.806;2023-05-10T01:02:09;12.80;99.90
19348;DHT22;9810;52.480;9.806;2023-05-10T01:04:37;12.80;99.90
19348;DHT22;9810;52.480;9.806;2023-05-10T01:07:06;12.70;99.90
19348;DHT22;9810;52.480;9.806;2023-05-10T01:09:36;12.70;99.90
19348;DHT22;9810;52.480;9.806;2023-05-10T01:12:05;12.70;99.90
19348;DHT22;9810;52.480;9.806;2023-05-10T01:14:34;12.60;99.90
19348;DHT22;9810;52.480;9.806;2023-05-10T01:17:03;12.50;99.90
19348;DHT22;9810;52.480;9.806;2023-05-10T01:19:32;12.50;99.90
19348;DHT22;9810;52.480;9.806;2023-05-10T01:22:10;12.60;99.90
19348;DHT22;9810;52.480;9.806;2023-05-10T01:28:02;12.70;99.90
19348;DHT22;9810;52.480;9.806;2023-05-10T01:31:02;12.70;99.90
19348;DHT22;9810;52.480;9.806;2023-05-10T01:33:35;12.60;99.90
19348;DHT22;9810;52.480;9.806;2023-05-10T01:36:11;12.60;99.90
19348;DHT22;9810;52.480;9.806;2023-05-10T01:38:44;12.60;99.90
19348;DHT22;9810;52.480;9.806;2023-05-10T01:41:18;12.60;99.90
19348;DHT22;9810;52.480;9.806;2023-05-10T01:43:52;12.60;99.90
19348;DHT22;9810;52.480;9.806;2023-05-10T01:46:25;12.60;99.90
19348;DHT22;9810;52.480;9.806;2023-05-10T01:48:57;12.50;99.90
19348;DHT22;9810;52.480;9.806;2023-05-10T01:51:29;12.50;99.90
19348;DHT22;9810;52.480;9.806;2023-05-10T01:54:01;12.50;99.90
19348;DHT22;9810;52.480;9.806;2023-05-10T01:56:32;12.40;99.90
19348;DHT22;9810;52.480;9.806;2023-05-10T01:59:00;12.40;99.90
19348;DHT22;9810;52.480;9.806;2023-05-10T02:01:33;12.40;99.90
19348;DHT22;9810;52.480;9.806;2023-05-10T02:04:06;12.40;99.90
19348;DHT22;9810;52.480;9.806;2023-05-10T02:06:34;12.30;99.90
19348;DHT22;9810;52.480;9.806;2023-05-10T02:09:03;12.40;99.90
19348;DHT22;9810;52.480;9.806;2023-05-10T02:11:33;12.40;99.90
19348;DHT22;9810;52.480;9.806;2023-05-10T02:14:03;12.40;99.90
19348;DHT22;9810;52.480;9.806;2023-05-10T02:16:36;12.30;99.90
19348;DHT22;9810;52.480;9.806;2023-05-10T02:19:07;12.30;99.90
19348;DHT22;9810;52.480;9.806;2023-05-10T02:21:36;12.30;99.90
19348;DHT22;9810;52.480;9.806;2023-05-10T02:24:05;12.30;99.90
19348;DHT22;9810;52.480;9.806;2023-05-10T02:26:36;12.30;99.90
19348;DHT22;9810;52.480;9.806;2023-05-10T02:29:09;12.50;99.90
19348;DHT22;9810;52.480;9.806;2023-05-10T02:31:40;12.50;99.90
19348;DHT22;9810;52.480;9.806;2023-05-10T02:34:16;12.40;99.90
19348;DHT22;9810;52.480;9.806;2023-05-10T02:36:44;12.40;99.90
19348;DHT22;9810;52.480;9.806;2023-05-10T02:39:12;12.40;99.90
19348;DHT22;9810;52.480;9.806;2023-05-10T02:41:42;12.40;99.90
19348;DHT22;9810;52.480;9.806;2023-05-10T02:44:11;12.40;99.90
19348;DHT22;9810;52.480;9.806;2023-05-10T02:46:39;12.40;99.90
19348;DHT22;9810;52.480;9.806;2023-05-10T02:49:07;12.30;99.90
19348;DHT22;9810;52.480;9.806;2023-05-10T02:51:40;12.30;99.90
19348;DHT22;9810;52.480;9.806;2023-05-10T02:54:11;12.40;99.90
19348;DHT22;9810;52.480;9.806;2023-05-10T02:56:47;12.30;99.90
19348;DHT22;9810;52.480;9.806;2023-05-10T02:59:17;12.30;99.90
19348;DHT22;9810;52.480;9.806;2023-05-10T03:01:45;12.20;99.90
19348;DHT22;9810;52.480;9.806;2023-05-10T03:04:12;12.30;99.90
19348;DHT22;9810;52.480;9.806;2023-05-10T03:06:42;12.30;99.90
19348;DHT22;9810;52.480;9.806;2023-05-10T03:09:11;12.30;99.90
19348;DHT22;9810;52.480;9.806;2023-05-10T03:11:47;12.30;99.90
19348;DHT22;9810;52.480;9.806;2023-05-10T03:17:14;12.20;99.90
19348;DHT22;9810;52.480;9.806;2023-05-10T03:19:48;12.30;99.90
19348;DHT22;9810;52.480;9.806;2023-05-10T03:22:24;12.30;99.90
19348;DHT22;9810;52.480;9.806;2023-05-10T03:24:54;12.30;99.90
19348;DHT22;9810;52.480;9.806;2023-05-10T03:27:23;12.30;99.90
19348;DHT22;9810;52.480;9.806;2023-05-10T03:29:53;12.30;99.90
19348;DHT22;9810;52.480;9.806;2023-05-10T03:32:22;12.20;99.90
19348;DHT22;9810;52.480;9.806;2023-05-10T03:34:49;12.20;99.90
19348;DHT22;9810;52.480;9.806;2023-05-10T03:37:18;12.30;99.90
19348;DHT22;9810;52.480;9.806;2023-05-10T03:39:45;12.30;99.90
19348;DHT22;9810;52.480;9.806;2023-05-10T03:42:13;12.30;99.90
19348;DHT22;9810;52.480;9.806;2023-05-10T03:44:40;12.30;99.90
19348;DHT22;9810;52.480;9.806;2023-05-10T03:47:07;12.40;99.90
19348;DHT22;9810;52.480;9.806;2023-05-10T03:49:35;12.30;99.90
19348;DHT22;9810;52.480;9.806;2023-05-10T03:52:02;12.30;99.90
19348;DHT22;9810;52.480;9.806;2023-05-10T03:54:32;12.30;99.90
19348;DHT22;9810;52.480;9.806;2023-05-10T03:56:59;12.40;99.90
19348;DHT22;9810;52.480;9.806;2023-05-10T03:59:28;12.40;99.90
19348;DHT22;9810;52.480;9.806;2023-05-10T04:01:55;12.40;99.90
19348;DHT22;9810;52.480;9.806;2023-05-10T04:04:23;12.40;99.90
19348;DHT22;9810;52.480;9.806;2023-05-10T04:06:50;12.40;99.90
19348;DHT22;9810;52.480;9.806;2023-05-10T04:09:17;12.40;99.90
19348;DHT22;9810;52.480;9.806;2023-05-10T04:11:46;12.30;99.90
19348;DHT22;9810;52.480;9.806;2023-05-10T04:14:14;12.30;99.90
19348;DHT22;9810;52.480;9.806;2023-05-10T04:16:41;12.40;99.90
19348;DHT22;9810;52.480;9.806;2023-05-10T04:19:09;12.30;99.90
19348;DHT22;9810;52.480;9.806;2023-05-10T04:21:36;12.20;99.90
19348;DHT22;9810;52.480;9.806;2023-05-10T04:24:04;12.20;99.90
19348;DHT22;9810;52.480;9.806;2023-05-10T04:26:31;12.20;99.90
19348;DHT22;9810;52.480;9.806;2023-05-10T04:29:00;12.20;99.90
19348;DHT22;9810;52.480;9.806;2023-05-10T04:31:28;12.20;99.90
19348;DHT22;9810;52.480;9.806;2023-05-10T04:33:54;12.10;99.90
19348;DHT22;9810;52.480;9.806;2023-05-10T04:36:22;12.10;99.90
19348;DHT22;9810;52.480;9.806;2023-05-10T04:38:49;12.10;99.90
19348;DHT22;9810;52.480;9.806;2023-05-10T04:41:16;12.10;99.90
19348;DHT22;9810;52.480;9.806;2023-05-10T04:43:43;12.20;99.90
19348;DHT22;9810;52.480;9.806;2023-05-10T04:46:13;12.10;99.90
19348;DHT22;9810;52.480;9.806;2023-05-10T04:48:40;12.10;99.90
19348;DHT22;9810;52.480;9.806;2023-05-10T04:51:07;12.10;99.90
19348;DHT22;9810;52.480;9.806;2023-05-10T04:53:35;12.00;99.90
19348;DHT22;9810;52.480;9.806;2023-05-10T04:56:02;12.00;99.90
19348;DHT22;9810;52.480;9.806;2023-05-10T04:58:30;12.00;99.90
19348;DHT22;9810;52.480;9.806;2023-05-10T05:00:59;12.10;99.90
19348;DHT22;9810;52.480;9.806;2023-05-10T05:03:33;12.20;99.90
19348;DHT22;9810;52.480;9.806;2023-05-10T05:06:00;12.30;99.90
19348;DHT22;9810;52.480;9.806;2023-05-10T05:08:27;12.20;99.90
19348;DHT22;9810;52.480;9.806;2023-05-10T05:10:54;12.10;99.90
19348;DHT22;9810;52.480;9.806;2023-05-10T05:13:22;12.20;99.90
19348;DHT22;9810;52.480;9.806;2023-05-10T05:15:49;12.20;99.90
19348;DHT22;9810;52.480;9.806;2023-05-10T05:18:16;12.20;99.90
19348;DHT22;9810;52.480;9.806;2023-05-10T05:20:46;12.20;99.90
19348;DHT22;9810;52.480;9.806;2023-05-10T05:23:13;12.20;99.90
19348;DHT22;9810;52.480;9.806;2023-05-10T05:25:41;12.30;99.90
19348;DHT22;9810;52.480;9.806;2023-05-10T05:28:09;12.10;99.90
19348;DHT22;9810;52.480;9.806;2023-05-10T05:30:37;12.10;99.90
19348;DHT22;9810;52.480;9.806;2023-05-10T05:33:04;12.10;99.90
19348;DHT22;9810;52.480;9.806;2023-05-10T05:35:31;12.20;99.90
19348;DHT22;9810;52.480;9.806;2023-05-10T05:38:00;12.00;99.90
19348;DHT22;9810;52.480;9.806;2023-05-10T05:40:28;11.90;99.90
19348;DHT22;9810;52.480;9.806;2023-05-10T05:42:55;12.00;99.90
19348;DHT22;9810;52.480;9.806;2023-05-10T05:45:22;12.10;99.90
19348;DHT22;9810;52.480;9.806;2023-05-10T05:47:50;12.10;99.90
19348;DHT22;9810;52.480;9.806;2023-05-10T05:50:17;12.10;99.90
19348;DHT22;9810;52.480;9.806;2023-05-10T05:52:45;12.00;99.90
19348;DHT22;9810;52.480;9.806;2023-05-10T05:55:14;12.00;99.90
19348;DHT22;9810;52.480;9.806;2023-05-10T05:57:41;12.10;99.90
19348;DHT22;9810;52.480;9.806;2023-05-10T06:00:08;12.10;99.90
19348;DHT22;9810;52.480;9.806;2023-05-10T06:02:36;12.00;99.90
19348;DHT22;9810;52.480;9.806;2023-05-10T06:05:03;11.90;99.90
19348;DHT22;9810;52.480;9.806;2023-05-10T06:07:31;12.00;99.90
19348;DHT22;9810;52.480;9.806;2023-05-10T06:09:58;12.10;99.90
19348;DHT22;9810;52.480;9.806;2023-05-10T06:12:27;12.20;99.90
19348;DHT22;9810;52.480;9.806;2023-05-10T06:14:54;12.30;99.90
19348;DHT22;9810;52.480;9.806;2023-05-10T06:17:22;12.20;99.90
19348;DHT22;9810;52.480;9.806;2023-05-10T06:19:49;12.10;99.90
19348;DHT22;9810;52.480;9.806;2023-05-10T06:22:17;12.00;99.90
19348;DHT22;9810;52.480;9.806;2023-05-10T06:24:44;12.20;99.90
19348;DHT22;9810;52.480;9.806;2023-05-10T06:27:11;12.20;99.90
19348;DHT22;9810;52.480;9.806;2023-05-10T06:29:42;12.10;99.90
19348;DHT22;9810;52.480;9.806;2023-05-10T06:32:12;12.20;99.90
19348;DHT22;9810;52.480;9.806;2023-05-10T06:34:39;12.20;99.90
19348;DHT22;9810;52.480;9.806;2023-05-10T06:37:08;12.30;99.90
19348;DHT22;9810;52.480;9.806;2023-05-10T06:39:36;12.20;99.90
19348;DHT22;9810;52.480;9.806;2023-05-10T06:42:04;12.20;99.90
19348;DHT22;9810;52.480;9.806;2023-05-10T06:44:31;12.10;99.90
19348;DHT22;9810;52.480;9.806;2023-05-10T06:47:00;12.10;99.90
19348;DHT22;9810;52.480;9.806;2023-05-10T06:49:27;12.20;99.90
19348;DHT22;9810;52.480;9.806;2023-05-10T06:51:55;12.10;99.90
19348;DHT22;9810;52.480;9.806;2023-05-10T06:54:23;12.10;99.90
19348;DHT22;9810;52.480;9.806;2023-05-10T06:56:50;12.10;99.90
19348;DHT22;9810;52.480;9.806;2023-05-10T06:59:18;12.20;99.90
19348;DHT22;9810;52.480;9.806;2023-05-10T07:01:47;12.20;99.90
19348;DHT22;9810;52.480;9.806;2023-05-10T07:04:16;12.20;99.90
19348;DHT22;9810;52.480;9.806;2023-05-10T07:06:43;12.20;99.90
19348;DHT22;9810;52.480;9.806;2023-05-10T07:09:11;12.30;99.90
19348;DHT22;9810;52.480;9.806;2023-05-10T07:11:39;12.40;99.90
19348;DHT22;9810;52.480;9.806;2023-05-10T07:14:07;12.40;99.90
19348;DHT22;9810;52.480;9.806;2023-05-10T07:16:34;12.50;99.90
19348;DHT22;9810;52.480;9.806;2023-05-10T07:19:01;12.50;99.90
19348;DHT22;9810;52.480;9.806;2023-05-10T07:21:32;12.60;99.90
19348;DHT22;9810;52.480;9.806;2023-05-10T07:24:00;12.70;99.90
19348;DHT22;9810;52.480;9.806;2023-05-10T07:26:28;12.80;99.90
19348;DHT22;9810;52.480;9.806;2023-05-10T07:28:56;12.80;99.90
19348;DHT22;9810;52.480;9.806;2023-05-10T07:31:23;12.70;99.90
19348;DHT22;9810;52.480;9.806;2023-05-10T07:34:00;12.80;99.90
19348;DHT22;9810;52.480;9.806;2023-05-10T07:36:48;13.90;99.90
19348;DHT22;9810;52.480;9.806;2023-05-10T07:39:23;15.20;99.90
19348;DHT22;9810;52.480;9.806;2023-05-10T07:42:09;14.70;99.90
19348;DHT22;9810;52.480;9.806;2023-05-10T07:44:47;13.70;99.90
19348;DHT22;9810;52.480;9.806;2023-05-10T07:47:16;13.40;99.90
19348;DHT22;9810;52.480;9.806;2023-05-10T07:49:49;13.30;99.90
19348;DHT22;9810;52.480;9.806;2023-05-10T07:52:31;13.20;99.90
19348;DHT22;9810;52.480;9.806;2023-05-10T07:54:59;13.00;99.90
19348;DHT22;9810;52.480;9.806;2023-05-10T07:57:29;12.90;99.90
19348;DHT22;9810;52.480;9.806;2023-05-10T08:00:17;12.90;99.90
19348;DHT22;9810;52.480;9.806;2023-05-10T08:03:00;12.90;99.90
19348;DHT22;9810;52.480;9.806;2023-05-10T08:06:14;13.00;99.90
19348;DHT22;9810;52.480;9.806;2023-05-10T08:12:43;12.90;99.90
19348;DHT22;9810;52.480;9.806;2023-05-10T08:15:10;13.10;99.90
19348;DHT22;9810;52.480;9.806;2023-05-10T08:17:38;13.40;99.90
19348;DHT22;9810;52.480;9.806;2023-05-10T08:20:05;13.40;99.90
19348;DHT22;9810;52.480;9.806;2023-05-10T08:22:33;13.40;99.90
19348;DHT22;9810;52.480;9.806;2023-05-10T08:25:00;15.00;99.90
19348;DHT22;9810;52.480;9.806;2023-05-10T08:27:28;16.30;99.90
19348;DHT22;9810;52.480;9.806;2023-05-10T08:29:59;15.20;99.90
19348;DHT22;9810;52.480;9.806;2023-05-10T08:32:27;16.10;99.90
19348;DHT22;9810;52.480;9.806;2023-05-10T08:34:54;15.90;99.90
19348;DHT22;9810;52.480;9.806;2023-05-10T08:37:23;15.20;99.90
19348;DHT22;9810;52.480;9.806;2023-05-10T08:39:50;15.10;99.90
19348;DHT22;9810;52.480;9.806;2023-05-10T08:42:34;15.40;99.90
19348;DHT22;9810;52.480;9.806;2023-05-10T08:45:10;15.40;99.90
19348;DHT22;9810;52.480;9.806;2023-05-10T08:47:37;15.60;99.90
19348;DHT22;9810;52.480;9.806;2023-05-10T08:50:06;15.00;99.90
19348;DHT22;9810;52.480;9.806;2023-05-10T08:52:38;14.60;99.90
19348;DHT22;9810;52.480;9.806;2023-05-10T08:55:06;14.60;99.90
19348;DHT22;9810;52.480;9.806;2023-05-10T08:57:34;14.50;99.90
19348;DHT22;9810;52.480;9.806;2023-05-10T09:00:03;14.50;99.90
19348;DHT22;9810;52.480;9.806;2023-05-10T09:02:33;14.40;99.90
19348;DHT22;9810;52.480;9.806;2023-05-10T09:05:00;14.50;99.90
19348;DHT22;9810;52.480;9.806;2023-05-10T09:07:30;14.70;99.90
19348;DHT22;9810;52.480;9.806;2023-05-10T09:09:58;14.90;99.90
19348;DHT22;9810;52.480;9.806;2023-05-10T09:12:26;14.80;99.90
19348;DHT22;9810;52.480;9.806;2023-05-10T09:14:54;14.60;99.90
19348;DHT22;9810;52.480;9.806;2023-05-10T09:17:23;14.60;99.90
19348;DHT22;9810;52.480;9.806;2023-05-10T09:19:58;14.60;99.90
19348;DHT22;9810;52.480;9.806;2023-05-10T09:22:26;14.60;99.90
19348;DHT22;9810;52.480;9.806;2023-05-10T09:25:04;14.40;99.90
19348;DHT22;9810;52.480;9.806;2023-05-10T09:27:35;14.50;99.90
19348;DHT22;9810;52.480;9.806;2023-05-10T09:30:04;14.60;99.90
19348;DHT22;9810;52.480;9.806;2023-05-10T09:32:39;14.50;99.90
19348;DHT22;9810;52.480;9.806;2023-05-10T09:35:09;14.60;99.90
19348;DHT22;9810;52.480;9.806;2023-05-10T09:37:39;14.60;99.90
19348;DHT22;9810;52.480;9.806;2023-05-10T09:40:08;14.60;99.90
19348;DHT22;9810;52.480;9.806;2023-05-10T09:42:38;14.80;99.90
19348;DHT22;9810;52.480;9.806;2023-05-10T09:45:07;14.90;99.90
19348;DHT22;9810;52.480;9.806;2023-05-10T09:47:36;15.00;99.90
19348;DHT22;9810;52.480;9.806;2023-05-10T09:50:04;15.10;99.90
19348;DHT22;9810;52.480;9.806;2023-05-10T09:52:46;15.10;99.90
19348;DHT22;9810;52.480;9.806;2023-05-10T09:55:15;15.00;99.90
19348;DHT22;9810;52.480;9.806;2023-05-10T09:57:42;15.10;99.90
19348;DHT22;9810;52.480;9.806;2023-05-10T10:00:10;15.00;99.90
19348;DHT22;9810;52.480;9.806;2023-05-10T10:02:45;15.10;99.90
19348;DHT22;9810;52.480;9.806;2023-05-10T10:05:13;15.10;99.90
19348;DHT22;9810;52.480;9.806;2023-05-10T10:07:42;15.10;99.90
19348;DHT22;9810;52.480;9.806;2023-05-10T10:10:11;15.20;99.90
19348;DHT22;9810;52.480;9.806;2023-05-10T10:12:40;15.10;99.90
19348;DHT22;9810;52.480;9.806;2023-05-10T10:15:09;15.40;99.90
19348;DHT22;9810;52.480;9.806;2023-05-10T10:17:37;15.50;99.90
19348;DHT22;9810;52.480;9.806;2023-05-10T10:20:09;15.40;99.90
19348;DHT22;9810;52.480;9.806;2023-05-10T10:22:37;15.50;99.90
19348;DHT22;9810;52.480;9.806;2023-05-10T10:25:10;15.60;99.90
19348;DHT22;9810;52.480;9.806;2023-05-10T10:27:45;15.60;99.90
19348;DHT22;9810;52.480;9.806;2023-05-10T10:30:23;15.60;99.90
19348;DHT22;9810;52.480;9.806;2023-05-10T10:33:09;15.70;99.90
19348;DHT22;9810;52.480;9.806;2023-05-10T10:35:40;15.60;99.90
19348;DHT22;9810;52.480;9.806;2023-05-10T10:38:10;16.00;99.90
19348;DHT22;9810;52.480;9.806;2023-05-10T10:40:40;15.80;99.90
19348;DHT22;9810;52.480;9.806;2023-05-10T10:43:25;15.70;99.90
19348;DHT22;9810;52.480;9.806;2023-05-10T10:46:12;15.60;99.90
19348;DHT22;9810;52.480;9.806;2023-05-10T10:48:48;15.80;99.90
19348;DHT22;9810;52.480;9.806;2023-05-10T10:51:16;16.00;99.90
19348;DHT22;9810;52.480;9.806;2023-05-10T10:53:44;15.90;99.90
19348;DHT22;9810;52.480;9.806;2023-05-10T10:56:13;16.10;99.90
19348;DHT22;9810;52.480;9.806;2023-05-10T10:58:42;15.90;99.90
19348;DHT22;9810;52.480;9.806;2023-05-10T11:01:17;15.90;99.90
19348;DHT22;9810;52.480;9.806;2023-05-10T11:04:18;16.00;99.90
19348;DHT22;9810;52.480;9.806;2023-05-10T11:06:46;16.10;99.90
19348;DHT22;9810;52.480;9.806;2023-05-10T11:09:13;16.60;99.90
19348;DHT22;9810;52.480;9.806;2023-05-10T11:11:54;17.80;99.90
19348;DHT22;9810;52.480;9.806;2023-05-10T11:14:22;17.60;99.90
19348;DHT22;9810;52.480;9.806;2023-05-10T11:16:49;16.90;99.90
19348;DHT22;9810;52.480;9.806;2023-05-10T11:19:30;16.60;99.90
19348;DHT22;9810;52.480;9.806;2023-05-10T11:22:13;16.70;99.90
19348;DHT22;9810;52.480;9.806;2023-05-10T11:24:40;17.00;99.90
19348;DHT22;9810;52.480;9.806;2023-05-10T11:27:25;17.00;99.90
19348;DHT22;9810;52.480;9.806;2023-05-10T11:29:53;17.00;99.90
19348;DHT22;9810;52.480;9.806;2023-05-10T11:32:22;17.10;99.90
19348;DHT22;9810;52.480;9.806;2023-05-10T11:34:49;17.00;99.90
19348;DHT22;9810;52.480;9.806;2023-05-10T11:37:18;17.00;99.90
19348;DHT22;9810;52.480;9.806;2023-05-10T11:39:46;17.10;99.90
19348;DHT22;9810;52.480;9.806;2023-05-10T11:42:14;17.20;99.90
19348;DHT22;9810;52.480;9.806;2023-05-10T11:44:45;17.50;99.90
19348;DHT22;9810;52.480;9.806;2023-05-10T11:47:14;18.10;99.90
19348;DHT22;9810;52.480;9.806;2023-05-10T11:49:43;17.90;99.90
19348;DHT22;9810;52.480;9.806;2023-05-10T11:52:10;17.80;99.90
19348;DHT22;9810;52.480;9.806;2023-05-10T11:54:45;17.60;99.90
19348;DHT22;9810;52.480;9.806;2023-05-10T11:57:13;17.90;99.90
19348;DHT22;9810;52.480;9.806;2023-05-10T11:59:42;17.80;99.90
19348;DHT22;9810;52.480;9.806;2023-05-10T12:02:21;18.10;99.90
19348;DHT22;9810;52.480;9.806;2023-05-10T12:04:49;18.30;99.90
19348;DHT22;9810;52.480;9.806;2023-05-10T12:07:17;18.50;99.90
19348;DHT22;9810;52.480;9.806;2023-05-10T12:09:55;18.40;99.90
19348;DHT22;9810;52.480;9.806;2023-05-10T12:12:36;18.80;99.90
19348;DHT22;9810;52.480;9.806;2023-05-10T12:15:10;18.80;99.90
19348;DHT22;9810;52.480;9.806;2023-05-10T12:17:38;18.60;99.90
19348;DHT22;9810;52.480;9.806;2023-05-10T12:20:17;18.30;99.90
19348;DHT22;9810;52.480;9.806;2023-05-10T12:22:49;18.70;99.90
19348;DHT22;9810;52.480;9.806;2023-05-10T12:25:17;19.00;99.90
19348;DHT22;9810;52.480;9.806;2023-05-10T12:27:49;19.30;99.90
19348;DHT22;9810;52.480;9.806;2023-05-10T12:30:23;19.50;99.90
19348;DHT22;9810;52.480;9.806;2023-05-10T12:32:51;19.50;99.90
19348;DHT22;9810;52.480;9.806;2023-05-10T12:35:19;19.90;99.90
19348;DHT22;9810;52.480;9.806;2023-05-10T12:37:47;19.40;99.90
19348;DHT22;9810;52.480;9.806;2023-05-10T12:40:15;19.50;99.90
19348;DHT22;9810;52.480;9.806;2023-05-10T12:42:43;19.60;99.90
19348;DHT22;9810;52.480;9.806;2023-05-10T12:45:11;19.70;99.90
19348;DHT22;9810;52.480;9.806;2023-05-10T12:47:40;19.60;99.90
19348;DHT22;9810;52.480;9.806;2023-05-10T12:50:08;19.30;99.90
19348;DHT22;9810;52.480;9.806;2023-05-10T12:52:36;18.80;99.90
19348;DHT22;9810;52.480;9.806;2023-05-10T12:55:04;18.90;99.90
19348;DHT22;9810;52.480;9.806;2023-05-10T12:57:32;19.00;99.90
19348;DHT22;9810;52.480;9.806;2023-05-10T12:59:59;18.90;99.90
19348;DHT22;9810;52.480;9.806;2023-05-10T13:02:26;18.90;99.90
19348;DHT22;9810;52.480;9.806;2023-05-10T13:04:56;18.80;99.90
19348;DHT22;9810;52.480;9.806;2023-05-10T13:07:23;18.50;99.90
19348;DHT22;9810;52.480;9.806;2023-05-10T13:09:50;18.50;99.90
19348;DHT22;9810;52.480;9.806;2023-05-10T13:12:17;18.60;99.90
19348;DHT22;9810;52.480;9.806;2023-05-10T13:14:45;18.50;99.90
19348;DHT22;9810;52.480;9.806;2023-05-10T13:17:12;18.40;99.90
19348;DHT22;9810;52.480;9.806;2023-05-10T13:19:40;18.40;99.90
19348;DHT22;9810;52.480;9.806;2023-05-10T13:22:09;18.40;99.90
19348;DHT22;9810;52.480;9.806;2023-05-10T13:24:36;18.30;99.90
19348;DHT22;9810;52.480;9.806;2023-05-10T13:27:06;17.00;99.90
19348;DHT22;9810;52.480;9.806;2023-05-10T13:29:33;17.00;99.90
19348;DHT22;9810;52.480;9.806;2023-05-10T13:32:01;16.70;99.90
19348;DHT22;9810;52.480;9.806;2023-05-10T13:34:28;16.40;99.90
19348;DHT22;9810;52.480;9.806;2023-05-10T13:36:55;16.30;99.90
19348;DHT22;9810;52.480;9.806;2023-05-10T13:39:24;16.20;99.90
19348;DHT22;9810;52.480;9.806;2023-05-10T13:41:52;16.10;99.90
19348;DHT22;9810;52.480;9.806;2023-05-10T13:44:20;16.00;99.90
19348;DHT22;9810;52.480;9.806;2023-05-10T13:46:47;15.90;99.90
19348;DHT22;9810;52.480;9.806;2023-05-10T13:49:15;15.90;99.90
19348;DHT22;9810;52.480;9.806;2023-05-10T13:51:44;16.10;99.90
19348;DHT22;9810;52.480;9.806;2023-05-10T13:54:11;15.90;99.90
19348;DHT22;9810;52.480;9.806;2023-05-10T13:56:41;15.60;99.90
19348;DHT22;9810;52.480;9.806;2023-05-10T13:59:09;15.20;99.90
19348;DHT22;9810;52.480;9.806;2023-05-10T14:01:36;15.20;99.90
19348;DHT22;9810;52.480;9.806;2023-05-10T14:04:04;15.20;99.90
19348;DHT22;9810;52.480;9.806;2023-05-10T14:06:31;15.40;99.90
19348;DHT22;9810;52.480;9.806;2023-05-10T14:08:59;15.40;99.90
19348;DHT22;9810;52.480;9.806;2023-05-10T14:11:28;15.50;99.90
19348;DHT22;9810;52.480;9.806;2023-05-10T14:13:57;15.50;99.90
19348;DHT22;9810;52.480;9.806;2023-05-10T14:16:25;15.30;99.90
19348;DHT22;9810;52.480;9.806;2023-05-10T14:18:52;15.50;99.90
19348;DHT22;9810;52.480;9.806;2023-05-10T14:21:20;15.50;99.90
19348;DHT22;9810;52.480;9.806;2023-05-10T14:23:47;15.70;99.90
19348;DHT22;9810;52.480;9.806;2023-05-10T14:26:14;15.60;99.90
19348;DHT22;9810;52.480;9.806;2023-05-10T14:28:41;15.50;99.90
19348;DHT22;9810;52.480;9.806;2023-05-10T14:31:10;15.60;99.90
19348;DHT22;9810;52.480;9.806;2023-05-10T14:33:38;15.60;99.90
19348;DHT22;9810;52.480;9.806;2023-05-10T14:36:06;15.70;99.90
19348;DHT22;9810;52.480;9.806;2023-05-10T14:38:34;15.60;99.90
19348;DHT22;9810;52.480;9.806;2023-05-10T14:41:01;15.60;99.90
19348;DHT22;9810;52.480;9.806;2023-05-10T14:43:29;15.50;99.90
19348;DHT22;9810;52.480;9.806;2023-05-10T14:45:56;15.60;99.90
19348;DHT22;9810;52.480;9.806;2023-05-10T14:48:25;15.70;99.90
19348;DHT22;9810;52.480;9.806;2023-05-10T14:50:52;15.70;99.90
19348;DHT22;9810;52.480;9.806;2023-05-10T14:53:20;15.80;99.90
19348;DHT22;9810;52.480;9.806;2023-05-10T14:55:47;16.00;99.90
19348;DHT22;9810;52.480;9.806;2023-05-10T14:58:14;16.00;99.90
19348;DHT22;9810;52.480;9.806;2023-05-10T15:00:42;15.80;99.90
19348;DHT22;9810;52.480;9.806;2023-05-10T15:03:09;15.80;99.90
19348;DHT22;9810;52.480;9.806;2023-05-10T15:05:38;16.00;99.90
19348;DHT22;9810;52.480;9.806;2023-05-10T15:08:06;16.00;99.90
19348;DHT22;9810;52.480;9.806;2023-05-10T15:10:34;16.00;99.90
19348;DHT22;9810;52.480;9.806;2023-05-10T15:13:03;16.10;99.90
19348;DHT22;9810;52.480;9.806;2023-05-10T15:15:31;15.90;99.90
19348;DHT22;9810;52.480;9.806;2023-05-10T15:17:58;15.90;99.90
19348;DHT22;9810;52.480;9.806;2023-05-10T15:20:26;15.60;99.90
19348;DHT22;9810;52.480;9.806;2023-05-10T15:22:55;15.70;99.90
19348;DHT22;9810;52.480;9.806;2023-05-10T15:25:22;15.90;99.90
19348;DHT22;9810;52.480;9.806;2023-05-10T15:27:50;16.10;99.90
19348;DHT22;9810;52.480;9.806;2023-05-10T15:30:17;16.20;99.90
19348;DHT22;9810;52.480;9.806;2023-05-10T15:32:45;16.10;99.90
19348;DHT22;9810;52.480;9.806;2023-05-10T15:35:12;16.00;99.90
19348;DHT22;9810;52.480;9.806;2023-05-10T15:37:40;15.90;99.90
19348;DHT22;9810;52.480;9.806;2023-05-10T15:40:11;16.30;99.90
19348;DHT22;9810;52.480;9.806;2023-05-10T15:42:38;16.80;99.90
19348;DHT22;9810;52.480;9.806;2023-05-10T15:45:06;16.60;99.90
19348;DHT22;9810;52.480;9.806;2023-05-10T15:47:34;16.50;99.90
19348;DHT22;9810;52.480;9.806;2023-05-10T15:50:02;16.30;99.90
19348;DHT22;9810;52.480;9.806;2023-05-10T15:52:29;16.20;99.90
19348;DHT22;9810;52.480;9.806;2023-05-10T15:54:56;16.30;99.90
19348;DHT22;9810;52.480;9.806;2023-05-10T15:57:25;16.40;99.90
19348;DHT22;9810;52.480;9.806;2023-05-10T15:59:53;16.20;99.90
19348;DHT22;9810;52.480;9.806;2023-05-10T16:02:20;16.20;99.90
19348;DHT22;9810;52.480;9.806;2023-05-10T16:04:48;16.10;99.90
19348;DHT22;9810;52.480;9.806;2023-05-10T16:07:16;16.30;99.90
19348;DHT22;9810;52.480;9.806;2023-05-10T16:09:43;16.20;99.90